createdAt,value
2019-02-28T00:00:17.992Z,4.43
2019-02-28T00:02:50.138Z,4.53
2019-02-28T00:05:20.734Z,4.50
2019-02-28T00:07:51.418Z,4.48
2019-02-28T00:10:21.893Z,4.47
2019-02-28T00:12:52.637Z,4.50
2019-02-28T00:15:23.149Z,4.53
2019-02-28T00:17:53.630Z,4.53
2019-02-28T00:20:23.964Z,4.53
2019-02-28T00:22:54.387Z,4.55
2019-02-28T00:25:24.782Z,4.56
2019-02-28T00:27:55.225Z,4.59
2019-02-28T00:30:25.776Z,4.61
2019-02-28T00:32:59.394Z,4.59
2019-02-28T00:35:28.525Z,4.62
2019-02-28T00:37:58.963Z,4.55
2019-02-28T00:40:29.573Z,4.52
2019-02-28T00:43:00.020Z,4.43
2019-02-28T00:45:30.437Z,4.42
2019-02-28T00:48:00.879Z,4.35
2019-02-28T00:50:31.559Z,4.39
2019-02-28T00:53:02.345Z,4.42
2019-02-28T00:55:32.907Z,4.48
2019-02-28T00:58:03.393Z,4.52
2019-02-28T01:00:37.002Z,4.52
2019-02-28T01:03:05.978Z,4.51
2019-02-28T01:05:37.218Z,4.49
2019-02-28T01:08:07.700Z,4.47
2019-02-28T01:10:39.395Z,4.47
2019-02-28T01:13:10.443Z,4.46
2019-02-28T01:15:44.811Z,4.44
2019-02-28T01:18:13.813Z,4.40
2019-02-28T01:20:50.026Z,4.36
2019-02-28T01:23:16.742Z,4.35
2019-02-28T01:25:47.195Z,4.33
2019-02-28T01:28:17.643Z,4.31
2019-02-28T01:30:48.386Z,4.31
2019-02-28T01:33:24.648Z,4.32
2019-02-28T01:35:51.023Z,4.32
2019-02-28T01:38:23.931Z,4.32
2019-02-28T01:40:53.720Z,4.27
2019-02-28T01:43:28.529Z,4.26
2019-02-28T01:45:56.740Z,4.27
2019-02-28T01:48:27.220Z,4.28
2019-02-28T01:51:00.781Z,4.28
2019-02-28T01:53:30.033Z,4.25
2019-02-28T01:56:02.546Z,4.27
2019-02-28T01:58:32.941Z,4.32
2019-02-28T02:01:03.639Z,4.36
2019-02-28T02:03:34.161Z,4.36
2019-02-28T02:06:06.104Z,4.38
2019-02-28T02:08:37.807Z,4.37
2019-02-28T02:11:08.877Z,4.37
2019-02-28T02:13:39.213Z,4.42
2019-02-28T02:16:09.603Z,4.39
2019-02-28T02:18:43.188Z,4.43
2019-02-28T02:21:12.502Z,4.39
2019-02-28T02:23:42.886Z,4.47
2019-02-28T02:26:14.243Z,4.53
2019-02-28T02:28:44.609Z,4.58
2019-02-28T02:31:15.085Z,4.74
2019-02-28T02:33:50.935Z,4.74
2019-02-28T02:36:17.820Z,4.75
2019-02-28T02:38:48.232Z,4.72
2019-02-28T02:41:18.764Z,4.71
2019-02-28T02:43:49.550Z,4.69
2019-02-28T02:46:21.434Z,4.64
2019-02-28T02:48:51.811Z,4.70
2019-02-28T02:51:22.228Z,4.72
2019-02-28T02:53:52.930Z,4.65
2019-02-28T02:56:23.446Z,4.62
2019-02-28T02:58:53.804Z,4.49
2019-02-28T03:01:24.546Z,4.42
2019-02-28T03:03:54.986Z,4.39
2019-02-28T03:06:25.466Z,4.38
2019-02-28T03:08:56.935Z,4.44
2019-02-28T03:11:27.413Z,4.57
2019-02-28T03:13:57.790Z,4.70
2019-02-28T03:16:28.179Z,4.65
2019-02-28T03:18:58.590Z,4.65
2019-02-28T03:21:29.029Z,4.71
2019-02-28T03:23:59.409Z,4.68
2019-02-28T03:26:30.265Z,4.61
2019-02-28T03:29:07.537Z,4.75
2019-02-28T03:31:32.733Z,4.72
2019-02-28T03:34:10.304Z,4.68
2019-02-28T03:36:35.321Z,4.64
2019-02-28T03:39:07.355Z,4.67
2019-02-28T03:41:37.905Z,4.60
2019-02-28T03:44:08.435Z,4.55
2019-02-28T03:46:39.059Z,4.58
2019-02-28T03:49:11.400Z,4.58
2019-02-28T03:51:41.919Z,4.55
2019-02-28T03:54:12.635Z,4.54
2019-02-28T03:56:43.235Z,4.52
2019-02-28T03:59:18.139Z,4.49
2019-02-28T04:01:47.031Z,4.47
2019-02-28T04:04:17.374Z,4.44
2019-02-28T04:06:47.775Z,4.41
2019-02-28T04:09:18.515Z,4.40
2019-02-28T04:11:48.909Z,4.32
2019-02-28T04:14:19.343Z,4.32
2019-02-28T04:16:54.084Z,4.31
2019-02-28T04:19:23.181Z,4.28
2019-02-28T04:21:53.588Z,4.19
2019-02-28T04:24:23.969Z,4.05
2019-02-28T04:26:54.311Z,3.79
2019-02-28T04:29:29.995Z,3.53
2019-02-28T04:31:58.115Z,3.51
2019-02-28T04:34:28.970Z,3.55
2019-02-28T04:36:59.455Z,3.62
2019-02-28T04:39:30.152Z,3.68
2019-02-28T04:42:01.071Z,3.73
2019-02-28T04:44:31.511Z,3.82
2019-02-28T04:47:03.477Z,3.83
2019-02-28T04:49:34.061Z,3.85
2019-02-28T04:52:05.645Z,3.81
2019-02-28T04:54:36.326Z,3.80
2019-02-28T04:57:06.940Z,3.81
2019-02-28T04:59:37.350Z,3.82
2019-02-28T05:02:08.016Z,3.78
2019-02-28T05:04:38.694Z,3.81
2019-02-28T05:07:09.155Z,3.80
2019-02-28T05:09:41.291Z,3.79
2019-02-28T05:12:13.171Z,3.86
2019-02-28T05:14:43.986Z,3.93
2019-02-28T05:17:14.391Z,3.97
2019-02-28T05:19:46.078Z,4.00
2019-02-28T05:22:18.618Z,4.02
2019-02-28T05:24:51.373Z,4.05
2019-02-28T05:27:24.310Z,4.04
2019-02-28T05:29:55.187Z,4.03
2019-02-28T05:32:27.735Z,4.02
2019-02-28T05:35:00.057Z,4.08
2019-02-28T05:37:32.232Z,4.14
2019-02-28T05:40:06.112Z,4.11
2019-02-28T05:42:37.516Z,4.10
2019-02-28T05:45:11.362Z,4.14
2019-02-28T05:47:46.397Z,4.14
2019-02-28T05:50:16.835Z,4.19
2019-02-28T05:52:48.420Z,4.22
2019-02-28T05:55:24.598Z,4.28
2019-02-28T05:57:53.375Z,4.40
2019-02-28T06:00:26.113Z,4.50
2019-02-28T06:02:58.234Z,4.53
2019-02-28T06:05:29.145Z,4.63
2019-02-28T06:08:00.519Z,4.77
2019-02-28T06:10:32.087Z,4.93
2019-02-28T06:13:02.591Z,4.93
2019-02-28T06:15:34.192Z,5.18
2019-02-28T06:18:05.640Z,5.19
2019-02-28T06:20:36.104Z,5.25
2019-02-28T06:23:09.303Z,5.37
2019-02-28T06:25:38.652Z,5.43
2019-02-28T06:28:09.097Z,5.38
2019-02-28T06:30:41.538Z,5.43
2019-02-28T06:33:11.613Z,5.38
2019-02-28T06:35:42.241Z,5.53
2019-02-28T06:38:12.710Z,5.56
2019-02-28T06:40:43.188Z,5.64
2019-02-28T06:43:14.226Z,5.74
2019-02-28T06:45:44.698Z,5.79
2019-02-28T06:48:15.065Z,5.83
2019-02-28T06:50:45.637Z,5.86
2019-02-28T06:53:16.033Z,5.96
2019-02-28T06:55:49.310Z,6.08
2019-02-28T06:58:19.776Z,6.19
2019-02-28T07:00:50.592Z,6.33
2019-02-28T07:03:21.136Z,6.47
2019-02-28T07:05:51.576Z,6.62
2019-02-28T07:08:24.892Z,6.67
2019-02-28T07:10:54.083Z,6.76
2019-02-28T07:13:24.586Z,6.85
2019-02-28T07:15:55.561Z,6.99
2019-02-28T07:18:27.244Z,7.07
2019-02-28T07:20:57.630Z,7.15
2019-02-28T07:23:29.955Z,7.19
2019-02-28T07:26:00.252Z,7.31
2019-02-28T07:28:36.292Z,7.38
2019-02-28T07:31:02.790Z,7.49
2019-02-28T07:33:33.238Z,7.56
2019-02-28T07:36:05.664Z,7.61
2019-02-28T07:38:35.745Z,7.75
2019-02-28T07:41:06.262Z,7.89
2019-02-28T07:43:36.722Z,8.01
2019-02-28T07:46:07.761Z,8.17
2019-02-28T07:48:39.038Z,8.26
2019-02-28T07:51:09.677Z,8.36
2019-02-28T07:53:40.960Z,8.53
2019-02-28T07:56:12.290Z,8.64
2019-02-28T07:58:42.771Z,8.78
2019-02-28T08:01:13.266Z,8.95
2019-02-28T08:03:44.947Z,9.03
2019-02-28T08:06:15.619Z,9.12
2019-02-28T08:08:46.081Z,9.20
2019-02-28T08:11:19.944Z,9.34
2019-02-28T08:13:49.858Z,9.43
2019-02-28T08:16:20.309Z,9.54
2019-02-28T08:18:51.367Z,9.59
2019-02-28T08:21:23.034Z,9.61
2019-02-28T08:23:53.466Z,9.64
2019-02-28T08:26:23.950Z,9.73
2019-02-28T08:28:54.451Z,9.75
2019-02-28T08:31:24.895Z,9.84
2019-02-28T08:33:56.363Z,9.91
2019-02-28T08:36:26.793Z,10.02
2019-02-28T08:38:57.247Z,10.05
2019-02-28T08:41:27.662Z,10.07
2019-02-28T08:43:58.192Z,10.19
2019-02-28T08:46:28.800Z,10.24
2019-02-28T08:48:59.328Z,10.32
2019-02-28T08:51:31.033Z,10.34
2019-02-28T08:54:02.201Z,10.44
2019-02-28T08:56:32.725Z,10.57
2019-02-28T08:59:11.552Z,10.66
2019-02-28T09:01:40.043Z,10.70
2019-02-28T09:04:09.460Z,10.81
2019-02-28T09:06:40.892Z,10.91
2019-02-28T09:09:14.619Z,10.99
2019-02-28T09:11:45.093Z,11.10
2019-02-28T09:14:17.776Z,11.18
2019-02-28T09:16:47.888Z,11.20
2019-02-28T09:19:19.582Z,11.31
2019-02-28T09:21:52.929Z,11.32
2019-02-28T09:24:22.176Z,11.44
2019-02-28T09:26:52.568Z,11.54
2019-02-28T09:29:23.317Z,11.56
2019-02-28T09:31:53.669Z,11.56
2019-02-28T09:34:24.097Z,11.85
2019-02-28T09:36:56.482Z,11.86
2019-02-28T09:39:26.827Z,11.97
2019-02-28T09:41:58.746Z,11.77
2019-02-28T09:44:31.530Z,11.77
2019-02-28T09:47:02.562Z,11.76
2019-02-28T09:49:34.683Z,11.93
2019-02-28T09:52:06.426Z,11.91
2019-02-28T09:54:37.728Z,11.97
2019-02-28T09:57:08.095Z,12.03
2019-02-28T09:59:38.723Z,12.00
2019-02-28T10:02:09.613Z,11.95
2019-02-28T10:04:40.106Z,12.10
2019-02-28T10:07:10.644Z,12.16
2019-02-28T10:09:44.377Z,12.37
2019-02-28T10:12:15.235Z,12.18
2019-02-28T10:14:45.653Z,12.25
2019-02-28T10:17:16.106Z,12.21
2019-02-28T10:19:51.964Z,12.26
2019-02-28T10:22:18.754Z,12.23
2019-02-28T10:24:49.372Z,12.30
2019-02-28T10:27:19.995Z,12.15
2019-02-28T10:29:51.030Z,12.16
2019-02-28T10:32:21.465Z,12.14
2019-02-28T10:34:51.889Z,12.10
2019-02-28T10:37:22.805Z,12.17
2019-02-28T10:39:54.308Z,12.15
2019-02-28T10:42:24.777Z,12.21
2019-02-28T10:44:55.353Z,12.17
2019-02-28T10:47:29.631Z,12.23
2019-02-28T10:49:59.028Z,12.23
2019-02-28T10:52:30.658Z,12.28
2019-02-28T10:55:01.298Z,12.29
2019-02-28T10:57:31.743Z,12.30
2019-02-28T11:00:02.104Z,12.45
2019-02-28T11:02:34.134Z,12.60
2019-02-28T11:05:04.842Z,12.68
2019-02-28T11:07:37.890Z,12.79
2019-02-28T11:10:07.523Z,12.90
2019-02-28T11:12:39.456Z,13.01
2019-02-28T11:15:13.726Z,12.98
2019-02-28T11:17:44.574Z,12.97
2019-02-28T11:20:22.111Z,13.08
2019-02-28T11:22:47.680Z,13.17
2019-02-28T11:25:18.776Z,13.17
2019-02-28T11:27:49.446Z,13.24
2019-02-28T11:30:20.372Z,13.39
2019-02-28T11:32:51.125Z,13.26
2019-02-28T11:35:23.240Z,13.46
2019-02-28T11:37:53.774Z,13.59
2019-02-28T11:40:25.324Z,13.51
2019-02-28T11:42:59.478Z,13.45
2019-02-28T11:45:29.014Z,13.30
2019-02-28T11:48:00.680Z,13.25
2019-02-28T11:50:31.279Z,13.42
2019-02-28T11:53:04.874Z,13.31
2019-02-28T11:55:33.857Z,13.42
2019-02-28T11:58:04.261Z,13.53
2019-02-28T12:00:35.728Z,13.65
2019-02-28T12:03:07.158Z,13.74
2019-02-28T12:05:37.839Z,13.74
2019-02-28T12:08:10.361Z,13.59
2019-02-28T12:10:40.371Z,13.64
2019-02-28T12:13:10.949Z,13.89
2019-02-28T12:15:42.400Z,13.82
2019-02-28T12:18:12.926Z,13.75
2019-02-28T12:20:43.498Z,13.80
2019-02-28T12:23:13.905Z,13.92
2019-02-28T12:25:44.263Z,14.08
2019-02-28T12:28:14.851Z,14.54
2019-02-28T12:30:45.227Z,14.58
2019-02-28T12:33:19.008Z,14.97
2019-02-28T12:35:47.893Z,14.96
2019-02-28T12:38:18.339Z,15.08
2019-02-28T12:40:49.572Z,14.96
2019-02-28T12:43:20.236Z,14.88
2019-02-28T12:45:50.847Z,15.05
2019-02-28T12:48:21.621Z,14.96
2019-02-28T12:50:52.103Z,14.93
2019-02-28T12:53:25.249Z,14.78
2019-02-28T12:55:54.680Z,14.52
2019-02-28T12:58:25.058Z,14.86
2019-02-28T13:01:00.029Z,15.04
2019-02-28T13:03:28.598Z,14.82
2019-02-28T13:05:59.084Z,15.20
2019-02-28T13:08:29.520Z,15.08
2019-02-28T13:11:04.539Z,14.79
2019-02-28T13:13:32.267Z,14.66
2019-02-28T13:16:03.003Z,14.90
2019-02-28T13:18:33.380Z,14.62
2019-02-28T13:21:06.161Z,14.44
2019-02-28T13:23:36.069Z,14.49
2019-02-28T13:26:06.550Z,14.27
2019-02-28T13:28:36.978Z,14.32
2019-02-28T13:31:07.473Z,14.50
2019-02-28T13:33:37.834Z,14.56
2019-02-28T13:36:08.232Z,14.42
2019-02-28T13:38:38.722Z,14.46
2019-02-28T13:41:09.217Z,14.49
2019-02-28T13:43:39.626Z,14.42
2019-02-28T13:46:12.887Z,14.41
2019-02-28T13:48:43.346Z,14.41
2019-02-28T13:51:13.878Z,14.23
2019-02-28T13:53:44.339Z,14.43
2019-02-28T13:56:14.954Z,14.31
2019-02-28T13:58:45.519Z,14.23
2019-02-28T14:01:19.420Z,14.22
2019-02-28T14:03:48.506Z,14.26
2019-02-28T14:06:20.080Z,14.28
2019-02-28T14:08:50.506Z,14.33
2019-02-28T14:11:21.331Z,14.46
2019-02-28T14:13:51.918Z,14.58
2019-02-28T14:16:26.525Z,14.49
2019-02-28T14:18:54.808Z,14.67
2019-02-28T14:21:25.398Z,14.67
2019-02-28T14:23:56.770Z,14.60
2019-02-28T14:26:27.243Z,14.44
2019-02-28T14:28:57.689Z,14.46
2019-02-28T14:31:29.523Z,14.36
2019-02-28T14:34:00.276Z,14.33
2019-02-28T14:36:30.938Z,14.20
2019-02-28T14:39:01.467Z,14.11
2019-02-28T14:41:33.473Z,14.19
2019-02-28T14:44:03.990Z,14.26
2019-02-28T14:46:34.836Z,14.04
2019-02-28T14:49:06.104Z,14.14
2019-02-28T14:51:37.629Z,14.15
2019-02-28T14:54:08.186Z,14.03
2019-02-28T14:56:39.531Z,13.96
2019-02-28T14:59:10.848Z,13.82
2019-02-28T15:01:41.460Z,13.77
2019-02-28T15:04:11.980Z,13.70
2019-02-28T15:06:42.486Z,13.73
2019-02-28T15:09:17.677Z,13.67
2019-02-28T15:11:48.297Z,13.65
2019-02-28T15:14:18.743Z,13.70
2019-02-28T15:16:49.252Z,13.70
2019-02-28T15:19:21.480Z,13.67
2019-02-28T15:21:52.866Z,13.57
2019-02-28T15:24:23.282Z,13.48
2019-02-28T15:26:53.700Z,13.50
2019-02-28T15:29:24.618Z,13.40
2019-02-28T15:31:56.139Z,13.30
2019-02-28T15:34:26.645Z,13.18
2019-02-28T15:36:59.174Z,13.13
2019-02-28T15:39:29.168Z,13.02
2019-02-28T15:41:59.664Z,12.89
2019-02-28T15:44:30.226Z,12.80
2019-02-28T15:47:00.850Z,12.68
2019-02-28T15:49:31.696Z,12.63
2019-02-28T15:52:05.276Z,12.52
2019-02-28T15:54:34.202Z,12.46
2019-02-28T15:57:04.784Z,12.37
2019-02-28T15:59:35.169Z,12.32
2019-02-28T16:02:06.247Z,12.27
2019-02-28T16:04:37.498Z,12.12
2019-02-28T16:07:08.179Z,12.02
2019-02-28T16:09:38.599Z,11.95
2019-02-28T16:12:12.514Z,11.95
2019-02-28T16:14:44.468Z,11.84
2019-02-28T16:17:14.955Z,11.84
2019-02-28T16:19:45.431Z,11.76
2019-02-28T16:22:18.200Z,11.61
2019-02-28T16:24:48.193Z,11.56
2019-02-28T16:27:18.556Z,11.54
2019-02-28T16:29:49.103Z,11.52
2019-02-28T16:32:19.517Z,11.40
2019-02-28T16:34:49.985Z,11.38
2019-02-28T16:37:20.417Z,11.28
2019-02-28T16:39:50.918Z,11.21
2019-02-28T16:42:21.773Z,11.29
2019-02-28T16:44:52.273Z,11.20
2019-02-28T16:47:24.487Z,11.19
2019-02-28T16:49:55.579Z,11.10
2019-02-28T16:52:26.002Z,11.04
2019-02-28T16:54:57.082Z,11.00
2019-02-28T16:57:27.507Z,10.89
2019-02-28T16:59:57.960Z,10.88
2019-02-28T17:02:29.277Z,10.85
2019-02-28T17:05:00.452Z,10.77
2019-02-28T17:07:30.803Z,10.71
2019-02-28T17:10:01.651Z,10.68
2019-02-28T17:12:48.881Z,10.64
2019-02-28T17:15:24.469Z,10.60
2019-02-28T17:17:58.466Z,10.53
2019-02-28T17:20:29.012Z,10.55
2019-02-28T17:23:01.422Z,10.50
2019-02-28T17:39:17.380Z,10.77
2019-02-28T17:41:47.939Z,10.68
2019-02-28T17:44:46.134Z,10.64
2019-02-28T17:47:41.294Z,10.63
2019-02-28T17:50:46.235Z,10.62
2019-02-28T17:53:48.918Z,10.63
2019-02-28T17:57:03.358Z,10.62
2019-02-28T18:06:43.716Z,10.50
2019-02-28T18:09:50.410Z,10.52
2019-02-28T18:13:00.927Z,10.51
2019-02-28T18:16:04.426Z,10.48
2019-02-28T18:19:14.852Z,10.48
2019-02-28T18:22:25.331Z,10.44
2019-02-28T18:25:52.027Z,10.48
2019-02-28T18:28:54.841Z,10.39
2019-02-28T18:31:25.729Z,10.34
2019-02-28T18:34:04.737Z,10.23
2019-02-28T18:36:40.191Z,10.23
2019-02-28T18:39:11.582Z,10.19
2019-02-28T18:41:44.562Z,10.19
2019-02-28T18:44:15.169Z,10.17
2019-02-28T18:46:46.561Z,10.13
2019-02-28T18:49:16.925Z,10.15
2019-02-28T18:51:47.431Z,10.12
2019-02-28T18:54:17.787Z,10.08
2019-02-28T18:56:48.211Z,10.04
2019-02-28T18:59:18.608Z,9.99
2019-02-28T19:01:49.051Z,9.99
2019-02-28T19:04:19.483Z,9.93
2019-02-28T19:06:49.952Z,9.92
2019-02-28T19:09:22.128Z,9.84
2019-02-28T19:11:54.175Z,9.73
2019-02-28T19:14:26.149Z,9.63
2019-02-28T19:16:56.637Z,9.59
2019-02-28T19:19:27.314Z,9.60
2019-02-28T19:21:57.834Z,9.54
2019-02-28T19:24:28.461Z,9.45
2019-02-28T19:26:58.935Z,9.39
2019-02-28T19:29:29.978Z,9.40
2019-02-28T19:32:02.893Z,9.38
2019-02-28T19:34:33.783Z,9.35
2019-02-28T19:37:04.745Z,9.35
2019-02-28T19:39:35.319Z,9.35
2019-02-28T19:42:06.166Z,9.35
2019-02-28T19:44:36.630Z,9.39
2019-02-28T19:47:07.958Z,9.37
2019-02-28T19:49:38.407Z,9.36
2019-02-28T19:52:09.080Z,9.37
2019-02-28T19:54:40.119Z,9.32
2019-02-28T19:57:10.949Z,9.27
2019-02-28T19:59:42.087Z,9.23
2019-02-28T20:02:16.546Z,9.34
2019-02-28T20:04:47.854Z,9.36
2019-02-28T20:07:20.015Z,9.33
2019-02-28T20:09:51.074Z,9.31
2019-02-28T20:12:21.646Z,9.34
2019-02-28T20:14:52.799Z,9.30
2019-02-28T20:17:23.800Z,9.28
2019-02-28T20:19:55.598Z,9.32
2019-02-28T20:22:26.269Z,9.40
2019-02-28T20:24:57.034Z,9.34
2019-02-28T20:27:27.414Z,9.36
2019-02-28T20:30:00.279Z,9.33
2019-02-28T20:32:30.354Z,9.35
2019-02-28T20:35:00.779Z,9.35
2019-02-28T20:37:31.443Z,9.31
2019-02-28T20:40:01.879Z,9.31
2019-02-28T20:42:32.497Z,9.27
2019-02-28T20:45:03.030Z,9.23
2019-02-28T20:47:33.675Z,9.14
2019-02-28T20:50:04.850Z,9.11
2019-02-28T20:52:35.330Z,9.08
2019-02-28T20:55:06.043Z,9.05
2019-02-28T20:57:36.477Z,9.02
2019-02-28T21:00:10.101Z,9.00
2019-02-28T21:02:40.793Z,8.94
2019-02-28T21:05:12.279Z,8.86
2019-02-28T21:07:42.807Z,8.90
2019-02-28T21:10:13.789Z,8.84
2019-02-28T21:12:44.238Z,8.79
2019-02-28T21:15:19.078Z,8.81
2019-02-28T21:17:49.873Z,8.76
2019-02-28T21:20:20.672Z,8.75
2019-02-28T21:22:51.138Z,8.69
2019-02-28T21:25:21.832Z,8.65
2019-02-28T21:27:52.448Z,8.62
2019-02-28T21:30:24.111Z,8.57
2019-02-28T21:32:54.801Z,8.55
2019-02-28T21:35:25.822Z,8.45
2019-02-28T21:37:58.584Z,8.45
2019-02-28T21:40:29.190Z,8.50
2019-02-28T21:42:59.689Z,8.44
2019-02-28T21:45:30.198Z,8.38
2019-02-28T21:48:00.904Z,8.41
2019-02-28T21:50:31.353Z,8.36
2019-02-28T21:53:01.827Z,8.34
2019-02-28T21:55:32.410Z,8.29
2019-02-28T21:58:02.884Z,8.21
2019-02-28T22:00:33.476Z,8.28
2019-02-28T22:03:04.238Z,8.20
2019-02-28T22:05:34.781Z,8.19
2019-02-28T22:08:05.859Z,8.08
2019-02-28T22:10:36.233Z,8.08
2019-02-28T22:13:06.925Z,8.03
2019-02-28T22:15:37.479Z,7.97
2019-02-28T22:18:07.940Z,7.99
2019-02-28T22:20:38.352Z,7.95
2019-02-28T22:23:11.218Z,7.88
2019-02-28T22:25:42.962Z,7.76
2019-02-28T22:28:13.379Z,7.76
2019-02-28T22:31:02.701Z,7.73
2019-02-28T22:33:58.663Z,7.63
2019-02-28T22:36:34.199Z,7.53
2019-02-28T22:39:06.280Z,7.49
2019-02-28T22:41:38.945Z,7.48
2019-02-28T22:44:10.779Z,7.44
2019-02-28T22:46:41.554Z,7.37
2019-02-28T22:49:12.283Z,7.38
2019-02-28T22:51:43.163Z,7.38
2019-02-28T22:54:13.613Z,7.22
2019-02-28T22:56:45.081Z,7.19
2019-02-28T22:59:15.874Z,7.14
2019-02-28T23:01:47.275Z,7.09
2019-02-28T23:04:18.053Z,7.03
2019-02-28T23:06:48.993Z,7.01
2019-02-28T23:09:21.039Z,7.01
2019-02-28T23:11:51.491Z,6.97
2019-02-28T23:14:21.875Z,6.96
2019-02-28T23:16:52.868Z,6.90
2019-02-28T23:19:23.645Z,6.89
2019-02-28T23:21:54.304Z,6.79
2019-02-28T23:24:24.922Z,6.69
2019-02-28T23:27:18.229Z,6.62
2019-02-28T23:30:18.551Z,6.63
2019-02-28T23:33:16.671Z,6.54
2019-02-28T23:35:48.713Z,6.47
2019-02-28T23:38:20.226Z,6.44
2019-02-28T23:40:51.973Z,6.39
2019-02-28T23:43:22.609Z,6.41
2019-02-28T23:45:54.749Z,6.35
2019-02-28T23:48:25.237Z,6.30
2019-02-28T23:50:55.747Z,6.27
2019-02-28T23:53:26.411Z,6.23
2019-02-28T23:55:58.654Z,6.22
2019-02-28T23:58:29.156Z,6.16
